Willcox, Arizona
Current Conditions -  °F | °C
As of 1:51 AM on Sunday 21 Dec 2014 (Local Time) from KSAD Reporting Station
Clear Clear  
Wind Chill: 34°   Ceiling: Unl
Heat Index: 38°   Visibility: 10mi
Dew Point: 35°   Wind: 5mph
Humidity: 89%   Direction: 230°SW
Pressure: 30.11"   Gusts: NA
Location:  32.25°N, 109.84°W
Report Text: KSAD 210851Z AUTO 23004KT 10SM CLR 03/02 A3011 RMK AO2 SLP186 T00330017 55003
Loading
Personal Weather Stations






























Interactive Weather Map New forecast layout! Learn more

10-Day Weather Forecast

Advertisements
Track Severe Weather on mobile